Terminal Aerodrome Forecast
Issued by NWS

Home | Current Version | Previous Version | Text Only | Print | Product List | Glossary On
Versions: 1 2 3 4 5 6 7 8 9 10 11 12 13
059
FTUS42 TJSJ 061739
TAFJBQ
TAF
TJBQ 061739Z 0618/0718 03010KT P6SM FEW030 SCT040
     FM062300 07008KT P6SM FEW035
     FM071330 15006KT P6SM FEW025 SCT050
     FM071700 06008KT P6SM SCT030 BKN060
      AMD NOT SKED 0702/0711=

USA.gov is the U.S. government's official web portal to all federal, state and local government web resources and services.